createdAt,value
2023-01-28T00:01:58.027Z,102368.19
2023-01-28T00:04:25.119Z,102362.97
2023-01-28T00:06:53.935Z,102370.97
2023-01-28T00:09:20.911Z,102372.91
2023-01-28T00:11:47.982Z,102372.06
2023-01-28T00:14:15.032Z,102365.16
2023-01-28T00:16:41.908Z,102362.53
2023-01-28T00:19:08.781Z,102366.16
2023-01-28T00:21:35.794Z,102355.72
2023-01-28T00:24:02.826Z,102357.56
2023-01-28T00:26:30.972Z,102362.94
2023-01-28T00:28:57.875Z,102352.44
2023-01-28T00:31:27.749Z,102353.38
2023-01-28T00:33:56.803Z,102363.97
2023-01-28T00:36:26.108Z,102355.28
2023-01-28T00:38:55.926Z,102351.81
2023-01-28T00:41:25.033Z,102356.22
2023-01-28T00:43:53.053Z,102357.19
2023-01-28T00:46:21.403Z,102359.03
2023-01-28T00:48:48.477Z,102365.25
2023-01-28T00:51:17.571Z,102365.34
2023-01-28T00:53:45.022Z,102357.41
2023-01-28T00:56:15.757Z,102353.09
2023-01-28T00:58:43.717Z,102350.47
2023-01-28T01:01:12.665Z,102347.88
2023-01-28T01:03:40.267Z,102350.53
2023-01-28T01:06:08.481Z,102354.13
2023-01-28T01:08:35.933Z,102364.72
2023-01-28T01:11:04.018Z,102370.03
2023-01-28T01:13:32.785Z,102374.47
2023-01-28T01:16:18.000Z,102375.47
2023-01-28T01:18:45.022Z,102378.13
2023-01-28T01:21:14.797Z,102375.47
2023-01-28T01:23:41.774Z,102383.44
2023-01-28T01:26:08.704Z,102374.66
2023-01-28T01:28:35.732Z,102374.75
2023-01-28T01:31:09.024Z,102380.91
2023-01-28T01:33:35.936Z,102385.34
2023-01-28T01:36:03.044Z,102390.63
2023-01-28T01:38:30.279Z,102386.25
2023-01-28T01:41:01.483Z,102390.66
2023-01-28T01:43:46.973Z,102385.50
2023-01-28T01:46:15.669Z,102385.38
2023-01-28T01:48:42.620Z,102390.72
2023-01-28T01:51:17.867Z,102392.50
2023-01-28T01:53:49.859Z,102399.56
2023-01-28T01:56:22.083Z,102402.22
2023-01-28T01:58:54.068Z,102398.75
2023-01-28T02:01:25.967Z,102404.03
2023-01-28T02:04:07.591Z,102406.69
2023-01-28T02:06:36.913Z,102407.56
2023-01-28T02:09:07.993Z,102397.94
2023-01-28T02:11:35.313Z,102405.81
2023-01-28T02:14:05.177Z,102401.44
2023-01-28T02:16:33.021Z,102406.75
2023-01-28T02:18:59.912Z,102405.88
2023-01-28T02:21:58.816Z,102411.16
2023-01-28T02:24:53.586Z,102425.38
2023-01-28T02:27:45.300Z,102420.88
2023-01-28T02:30:25.447Z,102419.09
2023-01-28T02:32:58.095Z,102416.53
2023-01-28T02:35:46.030Z,102412.06
2023-01-28T02:38:24.596Z,102406.84
2023-01-28T02:41:03.402Z,102407.69
2023-01-28T02:43:50.984Z,102407.69
2023-01-28T02:47:09.007Z,102406.81
2023-01-28T02:50:06.421Z,102405.94
2023-01-28T02:53:15.807Z,102413.81
2023-01-28T02:56:07.570Z,102415.66
2023-01-28T02:58:48.339Z,102413.81
2023-01-28T03:01:37.122Z,102404.19
2023-01-28T03:04:14.696Z,102423.56
2023-01-28T03:06:48.682Z,102421.81
2023-01-28T03:09:23.977Z,102430.56
2023-01-28T03:12:38.736Z,102423.50
2023-01-28T03:15:35.465Z,102420.88
2023-01-28T03:18:23.718Z,102417.34
2023-01-28T03:21:21.000Z,102411.16
2023-01-28T03:24:18.388Z,102407.63
2023-01-28T03:27:33.428Z,102406.69
2023-01-28T03:30:24.003Z,102423.47
2023-01-28T03:33:09.369Z,102414.63
2023-01-28T03:35:55.723Z,102414.69
2023-01-28T03:38:23.331Z,102414.63
2023-01-28T03:40:55.656Z,102404.91
2023-01-28T03:43:23.415Z,102411.06
2023-01-28T03:45:51.712Z,102409.31
2023-01-28T03:48:27.846Z,102415.44
2023-01-28T03:51:01.603Z,102414.53
2023-01-28T03:53:28.742Z,102414.53
2023-01-28T03:55:59.100Z,102419.81
2023-01-28T03:58:27.437Z,102430.41
2023-01-28T04:00:54.377Z,102435.66
2023-01-28T04:03:21.855Z,102440.09
2023-01-28T04:06:01.247Z,102444.50
2023-01-28T04:08:28.409Z,102440.09
2023-01-28T04:10:56.428Z,102441.00
2023-01-28T04:13:23.548Z,102444.47
2023-01-28T04:15:50.759Z,102451.50
2023-01-28T04:18:17.593Z,102459.53
2023-01-28T04:20:44.398Z,102470.91
2023-01-28T04:23:11.511Z,102464.72
2023-01-28T04:25:38.343Z,102474.38
2023-01-28T04:28:05.343Z,102473.53
2023-01-28T04:30:32.223Z,102463.91
2023-01-28T04:32:59.082Z,102468.25
2023-01-28T04:35:25.876Z,102465.53
2023-01-28T04:37:52.687Z,102456.78
2023-01-28T04:40:19.633Z,102466.50
2023-01-28T04:42:54.069Z,102471.75
2023-01-28T04:45:21.134Z,102470.91
2023-01-28T04:47:48.106Z,102463.78
2023-01-28T04:50:15.344Z,102460.25
2023-01-28T04:52:42.227Z,102465.53
2023-01-28T04:55:10.270Z,102470.84
2023-01-28T04:57:37.367Z,102472.66
2023-01-28T05:00:05.716Z,102470.03
2023-01-28T05:02:32.572Z,102457.69
2023-01-28T05:05:01.725Z,102462.09
2023-01-28T05:07:28.655Z,102466.44
2023-01-28T05:09:55.447Z,102456.72
2023-01-28T05:12:22.514Z,102449.66
2023-01-28T05:14:49.287Z,102435.63
2023-01-28T05:17:16.167Z,102442.63
2023-01-28T05:19:43.875Z,102437.41
2023-01-28T05:22:10.691Z,102441.72
2023-01-28T05:24:37.550Z,102432.97
2023-01-28T05:27:04.392Z,102428.59
2023-01-28T05:29:31.284Z,102433.78
2023-01-28T05:31:58.102Z,102433.00
2023-01-28T05:34:25.059Z,102447.03
2023-01-28T05:36:52.079Z,102446.22
2023-01-28T05:39:18.948Z,102449.63
2023-01-28T05:41:45.870Z,102448.78
2023-01-28T05:44:12.734Z,102451.41
2023-01-28T05:46:45.555Z,102440.78
2023-01-28T05:49:13.867Z,102449.53
2023-01-28T05:51:41.352Z,102437.16
2023-01-28T05:54:08.781Z,102435.34
2023-01-28T05:56:36.757Z,102441.59
2023-01-28T05:59:05.629Z,102447.75
2023-01-28T06:01:32.577Z,102449.50
2023-01-28T06:04:00.665Z,102434.59
2023-01-28T06:06:27.598Z,102437.25
2023-01-28T06:08:54.541Z,102439.78
2023-01-28T06:11:21.420Z,102438.09
2023-01-28T06:13:48.265Z,102442.53
2023-01-28T06:16:15.214Z,102448.56
2023-01-28T06:18:42.164Z,102446.56
2023-01-28T06:21:08.962Z,102445.41
2023-01-28T06:23:35.931Z,102441.75
2023-01-28T06:26:02.992Z,102447.81
2023-01-28T06:28:29.833Z,102446.78
2023-01-28T06:30:56.744Z,102463.41
2023-01-28T06:33:24.452Z,102466.06
2023-01-28T06:35:51.340Z,102468.91
2023-01-28T06:38:18.476Z,102468.00
2023-01-28T06:40:45.337Z,102480.47
2023-01-28T06:43:12.148Z,102476.69
2023-01-28T06:45:38.915Z,102484.25
2023-01-28T06:48:08.710Z,102493.72
2023-01-28T06:50:35.714Z,102498.75
2023-01-28T06:53:02.542Z,102492.81
2023-01-28T06:55:29.362Z,102496.19
2023-01-28T06:57:56.300Z,102496.47
2023-01-28T07:00:23.323Z,102486.16
2023-01-28T07:02:50.241Z,102495.53
2023-01-28T07:05:17.361Z,102490.03
2023-01-28T07:07:45.024Z,102490.69
2023-01-28T07:10:11.872Z,102486.19
2023-01-28T07:12:39.065Z,102486.06
2023-01-28T07:15:06.657Z,102485.91
2023-01-28T07:17:33.606Z,102483.19
2023-01-28T07:20:00.449Z,102494.56
2023-01-28T07:22:27.312Z,102496.22
2023-01-28T07:24:54.237Z,102490.84
2023-01-28T07:27:21.145Z,102497.78
2023-01-28T07:29:48.038Z,102495.97
2023-01-28T07:32:14.936Z,102502.06
2023-01-28T07:34:43.397Z,102521.41
2023-01-28T07:37:10.324Z,102518.69
2023-01-28T07:39:37.252Z,102522.22
2023-01-28T07:42:04.599Z,102519.56
2023-01-28T07:44:31.535Z,102529.19
2023-01-28T07:46:58.388Z,102530.00
2023-01-28T07:49:25.197Z,102535.31
2023-01-28T07:51:52.094Z,102544.09
2023-01-28T07:54:19.015Z,102544.94
2023-01-28T07:56:45.960Z,102539.66
2023-01-28T07:59:13.005Z,102536.06
2023-01-28T08:01:40.013Z,102535.16
2023-01-28T08:04:07.010Z,102539.47
2023-01-28T08:06:38.079Z,102544.75
2023-01-28T08:09:06.426Z,102554.34
2023-01-28T08:11:33.522Z,102549.84
2023-01-28T08:14:00.706Z,102557.72
2023-01-28T08:16:28.941Z,102547.03
2023-01-28T08:18:56.198Z,102554.91
2023-01-28T08:21:23.459Z,102555.72
2023-01-28T08:23:50.409Z,102555.72
2023-01-28T08:26:17.471Z,102553.03
2023-01-28T08:28:44.377Z,102552.16
2023-01-28T08:31:11.433Z,102549.38
2023-01-28T08:33:38.424Z,102555.47
2023-01-28T08:36:06.244Z,102558.09
2023-01-28T08:38:33.153Z,102558.03
2023-01-28T08:41:00.272Z,102558.97
2023-01-28T08:43:27.299Z,102570.94
2023-01-28T08:45:54.159Z,102572.72
2023-01-28T08:48:22.009Z,102574.47
2023-01-28T08:50:49.115Z,102564.59
2023-01-28T08:53:19.261Z,102568.78
2023-01-28T08:55:47.092Z,102564.31
2023-01-28T08:58:16.514Z,102559.81
2023-01-28T09:00:44.435Z,102550.06
2023-01-28T09:03:11.768Z,102544.69
2023-01-28T09:05:39.474Z,102542.84
2023-01-28T09:08:09.310Z,102547.16
2023-01-28T09:10:37.840Z,102553.34
2023-01-28T09:13:06.819Z,102560.38
2023-01-28T09:15:34.695Z,102546.25
2023-01-28T09:18:01.820Z,102562.06
2023-01-28T09:20:29.072Z,102569.09
2023-01-28T09:22:56.519Z,102578.88
2023-01-28T09:25:23.644Z,102575.44
2023-01-28T09:27:50.600Z,102579.81
2023-01-28T09:30:17.999Z,102576.22
2023-01-28T09:32:45.598Z,102576.22
2023-01-28T09:35:12.513Z,102580.72
2023-01-28T09:37:39.598Z,102589.47
2023-01-28T09:40:07.461Z,102587.69
2023-01-28T09:42:49.059Z,102596.53
2023-01-28T09:45:28.711Z,102595.69
2023-01-28T09:48:01.998Z,102604.47
2023-01-28T09:50:38.946Z,102604.47
2023-01-28T09:53:23.111Z,102607.44
2023-01-28T09:55:59.043Z,102611.25
2023-01-28T09:58:26.065Z,102607.81
2023-01-28T10:01:23.656Z,102624.25
2023-01-28T10:04:23.502Z,102614.44
2023-01-28T10:07:08.915Z,102601.75
2023-01-28T10:09:49.310Z,102611.69
2023-01-28T10:12:49.279Z,102599.13
2023-01-28T10:15:40.308Z,102601.56
2023-01-28T10:18:17.554Z,102593.47
2023-01-28T10:21:06.205Z,102595.16
2023-01-28T10:23:33.155Z,102591.56
2023-01-28T10:26:04.101Z,102596.75
2023-01-28T10:28:32.927Z,102592.28
2023-01-28T10:30:59.896Z,102592.22
2023-01-28T10:33:52.908Z,102587.72
2023-01-28T10:36:20.044Z,102590.22
2023-01-28T10:38:47.321Z,102586.53
2023-01-28T10:41:21.147Z,102588.22
2023-01-28T10:43:49.335Z,102577.56
2023-01-28T10:46:32.571Z,102580.06
2023-01-28T10:49:22.931Z,102585.50
2023-01-28T10:51:49.865Z,102575.72
2023-01-28T10:54:25.763Z,102575.53
2023-01-28T10:56:58.827Z,102575.44
2023-01-28T10:59:35.210Z,102568.28
2023-01-28T11:02:05.569Z,102566.44
2023-01-28T11:04:34.926Z,102568.13
2023-01-28T11:07:17.096Z,102557.44
2023-01-28T11:09:49.286Z,102559.13
2023-01-28T11:12:31.111Z,102559.03
2023-01-28T11:15:05.987Z,102558.94
2023-01-28T11:17:36.684Z,102550.91
2023-01-28T11:20:21.353Z,102543.75
2023-01-28T11:22:49.525Z,102536.59
2023-01-28T11:25:26.866Z,102540.88
2023-01-28T11:27:55.691Z,102536.41
2023-01-28T11:30:34.232Z,102542.44
2023-01-28T11:33:13.864Z,102537.94
2023-01-28T11:35:40.961Z,102526.44
2023-01-28T11:38:22.123Z,102533.44
2023-01-28T11:41:01.157Z,102523.81
2023-01-28T11:43:31.289Z,102526.44
2023-01-28T11:46:13.593Z,102520.25
2023-01-28T11:49:09.976Z,102515.81
2023-01-28T11:52:12.394Z,102514.00
2023-01-28T11:55:15.556Z,102512.53
2023-01-28T11:58:41.138Z,102511.91
2023-01-28T12:01:15.168Z,102504.88
2023-01-28T12:04:05.064Z,102503.19
2023-01-28T12:06:37.941Z,102506.66
2023-01-28T12:09:16.647Z,102519.00
2023-01-28T12:12:13.836Z,102511.88
2023-01-28T12:14:46.365Z,102511.78
2023-01-28T12:17:50.695Z,102511.78
2023-01-28T12:20:28.889Z,102503.56
2023-01-28T12:23:05.418Z,102504.44
2023-01-28T12:25:54.076Z,102508.03
2023-01-28T12:28:39.938Z,102513.41
2023-01-28T12:31:31.830Z,102507.31
2023-01-28T12:34:32.572Z,102507.31
2023-01-28T12:36:59.733Z,102504.75
2023-01-28T12:39:36.314Z,102495.09
2023-01-28T12:42:28.041Z,102493.28
2023-01-28T12:45:02.389Z,102493.31
2023-01-28T12:47:38.527Z,102484.56
2023-01-28T12:50:21.434Z,102492.53
2023-01-28T12:52:58.080Z,102484.59
2023-01-28T12:55:47.133Z,102486.41
2023-01-28T12:58:22.127Z,102486.41
2023-01-28T13:00:51.869Z,102474.94
2023-01-28T13:03:31.418Z,102479.34
2023-01-28T13:06:09.113Z,102468.78
2023-01-28T13:08:36.124Z,102473.25
2023-01-28T13:11:05.781Z,102466.13
2023-01-28T13:13:35.539Z,102463.53
2023-01-28T13:16:04.166Z,102455.59
2023-01-28T13:18:42.713Z,102451.19
2023-01-28T13:21:24.697Z,102446.84
2023-01-28T13:24:10.085Z,102441.53
2023-01-28T13:26:44.751Z,102439.78
2023-01-28T13:29:14.811Z,102432.81
2023-01-28T13:31:45.417Z,102421.34
2023-01-28T13:34:34.068Z,102419.63
2023-01-28T13:37:15.287Z,102409.94
2023-01-28T13:39:47.065Z,102419.63
2023-01-28T13:42:28.115Z,102410.84
2023-01-28T13:44:56.555Z,102411.78
2023-01-28T13:47:33.231Z,102417.94
2023-01-28T13:50:35.174Z,102407.38
2023-01-28T13:53:40.043Z,102407.38
2023-01-28T13:56:19.397Z,102402.97
2023-01-28T13:59:01.320Z,102404.91
2023-01-28T14:01:46.737Z,102412.06
2023-01-28T14:04:25.431Z,102403.56
2023-01-28T14:06:55.339Z,102405.59
2023-01-28T14:09:46.938Z,102396.56
2023-01-28T14:12:38.395Z,102387.13
2023-01-28T14:15:12.393Z,102385.03
2023-01-28T14:17:50.727Z,102383.81
2023-01-28T14:20:29.246Z,102372.25
2023-01-28T14:23:14.661Z,102367.78
2023-01-28T14:26:03.369Z,102366.03
2023-01-28T14:28:59.281Z,102366.09
2023-01-28T14:31:38.718Z,102368.50
2023-01-28T14:34:24.048Z,102370.78
2023-01-28T14:36:52.949Z,102373.81
2023-01-28T14:39:26.385Z,102373.66
2023-01-28T14:41:57.863Z,102366.44
2023-01-28T14:44:40.453Z,102366.25
2023-01-28T14:47:19.199Z,102372.34
2023-01-28T14:50:17.213Z,102371.41
2023-01-28T14:53:23.809Z,102371.16
2023-01-28T14:56:13.705Z,102372.91
2023-01-28T14:58:55.214Z,102378.13
2023-01-28T15:01:25.912Z,102378.06
2023-01-28T15:03:53.340Z,102385.97
2023-01-28T15:06:26.227Z,102386.78
2023-01-28T15:08:54.080Z,102388.38
2023-01-28T15:11:25.432Z,102388.22
2023-01-28T15:13:59.179Z,102382.78
2023-01-28T15:16:29.450Z,102378.16
2023-01-28T15:18:57.993Z,102378.97
2023-01-28T15:21:28.179Z,102376.13
2023-01-28T15:24:01.337Z,102374.25
2023-01-28T15:26:31.862Z,102380.22
2023-01-28T15:29:00.511Z,102379.25
2023-01-28T15:31:31.148Z,102379.88
2023-01-28T15:34:04.064Z,102375.19
2023-01-28T15:36:32.006Z,102381.97
2023-01-28T15:38:59.024Z,102375.53
2023-01-28T15:41:36.326Z,102388.56
2023-01-28T15:44:04.520Z,102387.34
2023-01-28T15:46:32.120Z,102378.38
2023-01-28T15:49:02.417Z,102368.41
2023-01-28T15:51:31.914Z,102366.44
2023-01-28T15:54:02.388Z,102364.44
2023-01-28T15:56:30.919Z,102368.59
2023-01-28T15:59:25.792Z,102369.31
2023-01-28T16:02:23.951Z,102361.13
2023-01-28T16:05:02.934Z,102365.34
2023-01-28T16:07:33.135Z,102367.81
2023-01-28T16:10:02.534Z,102367.63
2023-01-28T16:12:29.864Z,102354.25
2023-01-28T16:15:02.035Z,102366.47
2023-01-28T16:17:40.337Z,102369.94
2023-01-28T16:20:19.630Z,102373.28
2023-01-28T16:22:46.826Z,102376.75
2023-01-28T16:25:27.876Z,102372.34
2023-01-28T16:27:55.585Z,102375.84
2023-01-28T16:30:22.601Z,102382.97
2023-01-28T16:32:49.550Z,102383.13
2023-01-28T16:35:23.966Z,102381.41
2023-01-28T16:37:51.512Z,102377.91
2023-01-28T16:40:22.819Z,102373.44
2023-01-28T16:42:50.244Z,102376.09
2023-01-28T16:45:23.621Z,102372.59
2023-01-28T16:47:51.753Z,102384.91
2023-01-28T16:50:22.166Z,102374.19
2023-01-28T16:52:51.942Z,102384.59
2023-01-28T16:55:21.940Z,102388.94
2023-01-28T16:57:52.918Z,102395.25
2023-01-28T17:00:23.928Z,102375.84
2023-01-28T17:02:51.810Z,102372.78
2023-01-28T17:05:20.184Z,102370.59
2023-01-28T17:07:49.459Z,102372.28
2023-01-28T17:10:17.390Z,102373.03
2023-01-28T17:12:45.167Z,102368.41
2023-01-28T17:15:12.308Z,102362.03
2023-01-28T17:17:39.293Z,102368.22
2023-01-28T17:20:06.796Z,102362.91
2023-01-28T17:22:33.698Z,102357.38
2023-01-28T17:25:00.939Z,102356.28
2023-01-28T17:27:27.935Z,102353.63
2023-01-28T17:29:54.834Z,102355.25
2023-01-28T17:32:21.771Z,102350.69
2023-01-28T17:34:48.988Z,102347.94
2023-01-28T17:37:15.900Z,102343.50
2023-01-28T17:39:42.898Z,102341.84
2023-01-28T17:42:09.900Z,102326.69
2023-01-28T17:44:39.299Z,102318.25
2023-01-28T17:47:06.210Z,102312.53
2023-01-28T17:49:33.330Z,102313.22
2023-01-28T17:52:00.410Z,102313.84
2023-01-28T17:54:27.583Z,102313.72
2023-01-28T17:56:55.083Z,102331.25
2023-01-28T17:59:24.804Z,102324.94
2023-01-28T18:01:54.918Z,102332.09
2023-01-28T18:04:21.916Z,102327.56
2023-01-28T18:06:49.684Z,102325.81
2023-01-28T18:09:16.619Z,102331.03
2023-01-28T18:11:43.556Z,102336.34
2023-01-28T18:14:10.446Z,102334.59
2023-01-28T18:16:37.379Z,102329.28
2023-01-28T18:19:06.531Z,102330.09
2023-01-28T18:21:51.303Z,102330.09
2023-01-28T18:24:20.072Z,102323.03
2023-01-28T18:26:47.121Z,102328.44
2023-01-28T18:29:17.250Z,102323.97
2023-01-28T18:31:44.718Z,102328.44
2023-01-28T18:34:12.069Z,102329.34
2023-01-28T18:36:39.299Z,102327.56
2023-01-28T18:39:07.625Z,102332.88
2023-01-28T18:41:34.760Z,102320.50
2023-01-28T18:44:01.993Z,102322.38
2023-01-28T18:46:29.505Z,102312.84
2023-01-28T18:48:57.792Z,102308.53
2023-01-28T18:51:30.510Z,102300.69
2023-01-28T18:54:02.379Z,102301.75
2023-01-28T18:56:30.375Z,102297.47
2023-01-28T18:59:02.801Z,102290.59
2023-01-28T19:01:32.306Z,102288.84
2023-01-28T19:04:00.741Z,102281.78
2023-01-28T19:06:29.272Z,102280.13
2023-01-28T19:09:02.131Z,102284.59
2023-01-28T19:11:30.386Z,102271.44
2023-01-28T19:13:58.043Z,102270.50
2023-01-28T19:16:27.990Z,102281.09
2023-01-28T19:18:57.937Z,102283.72
2023-01-28T19:21:26.269Z,102288.91
2023-01-28T19:23:58.882Z,102285.38
2023-01-28T19:26:27.354Z,102282.84
2023-01-28T19:28:54.972Z,102275.69
2023-01-28T19:31:23.947Z,102268.59
2023-01-28T19:33:54.959Z,102270.25
2023-01-28T19:36:22.304Z,102265.47
2023-01-28T19:38:49.603Z,102268.69
2023-01-28T19:41:17.679Z,102268.44
2023-01-28T19:43:46.049Z,102259.41
2023-01-28T19:46:16.663Z,102261.81
2023-01-28T19:48:45.760Z,102264.22
2023-01-28T19:51:16.733Z,102266.59
2023-01-28T19:53:45.569Z,102263.75
2023-01-28T19:56:15.175Z,102266.19
2023-01-28T19:58:44.372Z,102265.41
2023-01-28T20:01:14.249Z,102258.47
2023-01-28T20:03:47.702Z,102266.16
2023-01-28T20:06:17.343Z,102257.19
2023-01-28T20:08:45.623Z,102255.22
2023-01-28T20:11:16.164Z,102242.72
2023-01-28T20:13:48.553Z,102242.63
2023-01-28T20:16:20.141Z,102235.53
2023-01-28T20:19:20.523Z,102226.63
2023-01-28T20:21:49.286Z,102228.34
2023-01-28T20:24:20.197Z,102220.31
2023-01-28T20:26:47.859Z,102217.56
2023-01-28T20:29:19.265Z,102216.66
2023-01-28T20:32:00.922Z,102208.66
2023-01-28T20:34:37.590Z,102204.34
2023-01-28T20:37:10.908Z,102196.28
2023-01-28T20:39:38.539Z,102190.97
2023-01-28T20:42:09.530Z,102196.28
2023-01-28T20:44:36.833Z,102199.09
2023-01-28T20:47:04.818Z,102191.97
2023-01-28T20:49:35.251Z,102185.78
2023-01-28T20:52:02.651Z,102180.47
2023-01-28T20:54:30.389Z,102172.50
2023-01-28T20:56:58.257Z,102166.38
2023-01-28T20:59:25.715Z,102181.34
2023-01-28T21:01:53.196Z,102187.94
2023-01-28T21:04:20.459Z,102193.53
2023-01-28T21:06:47.662Z,102184.72
2023-01-28T21:09:15.483Z,102182.91
2023-01-28T21:11:43.050Z,102178.28
2023-01-28T21:14:12.565Z,102183.47
2023-01-28T21:16:43.059Z,102170.28
2023-01-28T21:19:10.349Z,102172.09
2023-01-28T21:21:43.164Z,102167.63
2023-01-28T21:24:14.696Z,102165.78
2023-01-28T21:26:44.868Z,102144.75
2023-01-28T21:29:15.079Z,102143.03
2023-01-28T21:31:42.990Z,102144.75
2023-01-28T21:34:11.496Z,102132.41
2023-01-28T21:36:38.969Z,102127.09
2023-01-28T21:39:07.547Z,102127.09
2023-01-28T21:41:34.876Z,102121.75
2023-01-28T21:44:01.982Z,102122.75
2023-01-28T21:46:35.536Z,102112.38
2023-01-28T21:49:05.770Z,102111.06
2023-01-28T21:51:35.872Z,102110.50
2023-01-28T21:54:07.908Z,102101.19
2023-01-28T21:56:35.074Z,102100.66
2023-01-28T21:59:20.975Z,102106.38
2023-01-28T22:01:48.388Z,102108.50
2023-01-28T22:04:16.241Z,102115.91
2023-01-28T22:06:43.548Z,102104.75
2023-01-28T22:09:14.281Z,102121.84
2023-01-28T22:11:43.351Z,102119.44
2023-01-28T22:14:11.173Z,102110.00
2023-01-28T22:16:45.131Z,102116.53
2023-01-28T22:19:13.004Z,102107.03
2023-01-28T22:21:42.492Z,102115.91
2023-01-28T22:24:11.840Z,102111.00
2023-01-28T22:26:40.688Z,102116.41
2023-01-28T22:29:10.030Z,102112.13
2023-01-28T22:31:38.209Z,102100.84
2023-01-28T22:34:06.774Z,102099.38
2023-01-28T22:36:35.582Z,102091.66
2023-01-28T22:39:05.126Z,102093.69
2023-01-28T22:41:33.115Z,102087.63
2023-01-28T22:44:04.108Z,102083.34
2023-01-28T22:46:33.340Z,102086.16
2023-01-28T22:49:03.909Z,102077.50
2023-01-28T22:51:33.934Z,102062.56
2023-01-28T22:54:01.187Z,102053.06
2023-01-28T22:56:29.528Z,102048.81
2023-01-28T22:59:02.028Z,102047.28
2023-01-28T23:01:30.115Z,102034.94
2023-01-28T23:03:58.038Z,102034.19
2023-01-28T23:06:27.843Z,102027.25
2023-01-28T23:08:56.616Z,102022.94
2023-01-28T23:11:28.433Z,102009.88
2023-01-28T23:14:18.183Z,102004.75
2023-01-28T23:17:04.281Z,102002.16
2023-01-28T23:19:50.471Z,102007.63
2023-01-28T23:22:46.693Z,102009.59
2023-01-28T23:25:14.253Z,102013.25
2023-01-28T23:27:41.741Z,102010.69
2023-01-28T23:30:10.892Z,102011.66
2023-01-28T23:32:40.591Z,102015.28
2023-01-28T23:35:09.432Z,102015.41
2023-01-28T23:37:37.233Z,102012.84
2023-01-28T23:40:06.306Z,101999.78
2023-01-28T23:42:33.434Z,101995.47
2023-01-28T23:45:00.384Z,101981.56
2023-01-28T23:47:27.269Z,101983.34
2023-01-28T23:49:54.516Z,101984.34
2023-01-28T23:52:21.725Z,101985.28
2023-01-28T23:54:48.672Z,101972.16
2023-01-28T23:57:15.938Z,101966.97
2023-01-28T23:59:43.464Z,101973.13
